Louie C. — WDE7885 — position and weather

sailwx.info

Track history (hours):
 
Tides and Currents Weather Stations Pressure Air Temp Water Temp Dewpoint Dewpoint Depression Visibility Wind Speed Wind Dir Waves Ship Positions

Louie C.

Owner: Louie C., Bourg, LA. More information available from US FCC via Universal Licensing System and Coast Guard Vessel Documentation Center.

Last reported at 2017-Dec-25 04:56 UTC. Time now 2018-Feb-25 23:59 UTC.
Position N 29°32' W 090°50'.
Warning: this ship's position is months out of date.

Length 11 m; draft 2 m.

Type: Other ship. MMSI: 367398920.

Date/timePositionNaut miles runAvg speedWind from/ knotsBaromVisibWave heightAir tempDewpointWater temp
2017-Dec-25 04:56N 29°32' W 090°50'3 7.5
2017-Dec-25 04:30N 29°32' W 090°47'3 6.5
2017-Dec-25 04:00N 29°34' W 090°44'3 6.2
2017-Dec-25 03:30N 29°37' W 090°42'4 7.3
2017-Dec-25 03:00N 29°35' W 090°38'3 5.4
2017-Dec-25 02:29N 29°35' W 090°35'4 0.1
2017-Dec-23 18:20N 29°34' W 090°31'2 6.2
2017-Dec-23 17:59N 29°34' W 090°33'3 5.9
2017-Dec-23 17:31N 29°35' W 090°36'3 5.9
2017-Dec-23 17:00N 29°36' W 090°39'3 5.5
2017-Dec-23 16:31N 29°37' W 090°42'3 5.4
2017-Dec-23 16:00N 29°34' W 090°43'0 0.9
2017-Dec-23 15:30N 29°34' W 090°44'0 0.0
2017-Dec-23 15:01N 29°34' W 090°44'0 0.1
2017-Dec-23 14:31N 29°34' W 090°44'0 0.1
2017-Dec-23 14:01N 29°34' W 090°44'0 0.0
2017-Dec-23 13:31N 29°34' W 090°44'0 0.0
2017-Dec-23 13:00N 29°34' W 090°44'0 0.0
2017-Dec-23 12:30N 29°34' W 090°44'0 0.0
2017-Dec-23 12:00N 29°34' W 090°44'0 0.0
2017-Dec-23 11:30N 29°34' W 090°44'0 0.0
2017-Dec-23 11:00N 29°34' W 090°44'0 0.0
2017-Dec-23 10:30N 29°34' W 090°44'0 0.0
2017-Dec-23 10:00N 29°34' W 090°44'0 0.0
2017-Dec-23 09:30N 29°34' W 090°44'0 0.0
2017-Dec-23 09:01N 29°34' W 090°44'0 0.0
2017-Dec-23 08:30N 29°34' W 090°44'0 0.0
2017-Dec-23 08:01N 29°34' W 090°44'0 0.0
2017-Dec-23 07:31N 29°34' W 090°44'0 0.0
2017-Dec-23 07:01N 29°34' W 090°44'0 0.0
2017-Dec-23 06:30N 29°34' W 090°44'0 0.0
2017-Dec-23 06:01N 29°34' W 090°44'0 0.0
2017-Dec-23 05:31N 29°34' W 090°44'0 0.0
2017-Dec-23 05:00N 29°34' W 090°44'0 0.0
2017-Dec-23 04:31N 29°34' W 090°44'0 0.0
2017-Dec-23 04:01N 29°34' W 090°44'0 0.0
2017-Dec-23 03:31N 29°34' W 090°44'0 0.0
2017-Dec-23 03:00N 29°34' W 090°44'0 0.0
2017-Dec-23 02:30N 29°34' W 090°44'0 0.0
2017-Dec-23 02:00N 29°34' W 090°44'0 0.0
2017-Dec-23 01:31N 29°34' W 090°44'0 0.0
2017-Dec-23 01:00N 29°34' W 090°44'1 1.5
2017-Dec-23 00:30N 29°34' W 090°43'1 2.9
2017-Dec-23 00:00N 29°33' W 090°42'3 6.4
2017-Dec-22 23:31N 29°30' W 090°43'17 0.4
2017-Dec-21 06:37N 29°13' W 090°40'0 0.0
2017-Dec-21 06:25N 29°13' W 090°40'0 0.0
2017-Dec-21 05:57N 29°13' W 090°40'0 0.0
2017-Dec-21 05:29N 29°13' W 090°40'0 0.0
2017-Dec-21 05:00N 29°13' W 090°40'0 0.0
2017-Dec-21 04:30N 29°13' W 090°40'  
Track history (hours):
 
Tides and Currents Weather Stations Pressure Air Temp Water Temp Dewpoint Dewpoint Depression Visibility Wind Speed Wind Dir Waves Ship Positions

Louie C.

Owner: Louie C., Bourg, LA. More information available from US FCC via Universal Licensing System and Coast Guard Vessel Documentation Center.

Last reported at 2017-Dec-25 04:56 UTC. Time now 2018-Feb-25 23:59 UTC.
Position N 29°32' W 090°50'.
Warning: this ship's position is months out of date.

Length 11 m; draft 2 m.

Type: Other ship. MMSI: 367398920.

Date/timePositionNaut miles runAvg speedWind from/ knotsBaromVisibWave heightAir tempDewpointWater temp
2017-Dec-25 04:56N 29°32' W 090°50'3 7.5
2017-Dec-25 04:30N 29°32' W 090°47'3 6.5
2017-Dec-25 04:00N 29°34' W 090°44'3 6.2
2017-Dec-25 03:30N 29°37' W 090°42'4 7.3
2017-Dec-25 03:00N 29°35' W 090°38'3 5.4
2017-Dec-25 02:29N 29°35' W 090°35'4 0.1
2017-Dec-23 18:20N 29°34' W 090°31'2 6.2
2017-Dec-23 17:59N 29°34' W 090°33'3 5.9
2017-Dec-23 17:31N 29°35' W 090°36'3 5.9
2017-Dec-23 17:00N 29°36' W 090°39'3 5.5
2017-Dec-23 16:31N 29°37' W 090°42'3 5.4
2017-Dec-23 16:00N 29°34' W 090°43'0 0.9
2017-Dec-23 15:30N 29°34' W 090°44'0 0.0
2017-Dec-23 15:01N 29°34' W 090°44'0 0.1
2017-Dec-23 14:31N 29°34' W 090°44'0 0.1
2017-Dec-23 14:01N 29°34' W 090°44'0 0.0
2017-Dec-23 13:31N 29°34' W 090°44'0 0.0
2017-Dec-23 13:00N 29°34' W 090°44'0 0.0
2017-Dec-23 12:30N 29°34' W 090°44'0 0.0
2017-Dec-23 12:00N 29°34' W 090°44'0 0.0
2017-Dec-23 11:30N 29°34' W 090°44'0 0.0
2017-Dec-23 11:00N 29°34' W 090°44'0 0.0
2017-Dec-23 10:30N 29°34' W 090°44'0 0.0
2017-Dec-23 10:00N 29°34' W 090°44'0 0.0
2017-Dec-23 09:30N 29°34' W 090°44'0 0.0
2017-Dec-23 09:01N 29°34' W 090°44'0 0.0
2017-Dec-23 08:30N 29°34' W 090°44'0 0.0
2017-Dec-23 08:01N 29°34' W 090°44'0 0.0
2017-Dec-23 07:31N 29°34' W 090°44'0 0.0
2017-Dec-23 07:01N 29°34' W 090°44'0 0.0
2017-Dec-23 06:30N 29°34' W 090°44'0 0.0
2017-Dec-23 06:01N 29°34' W 090°44'0 0.0
2017-Dec-23 05:31N 29°34' W 090°44'0 0.0
2017-Dec-23 05:00N 29°34' W 090°44'0 0.0
2017-Dec-23 04:31N 29°34' W 090°44'0 0.0
2017-Dec-23 04:01N 29°34' W 090°44'0 0.0
2017-Dec-23 03:31N 29°34' W 090°44'0 0.0
2017-Dec-23 03:00N 29°34' W 090°44'0 0.0
2017-Dec-23 02:30N 29°34' W 090°44'0 0.0
2017-Dec-23 02:00N 29°34' W 090°44'0 0.0
2017-Dec-23 01:31N 29°34' W 090°44'0 0.0
2017-Dec-23 01:00N 29°34' W 090°44'1 1.5
2017-Dec-23 00:30N 29°34' W 090°43'1 2.9
2017-Dec-23 00:00N 29°33' W 090°42'3 6.4
2017-Dec-22 23:31N 29°30' W 090°43'17 0.4
2017-Dec-21 06:37N 29°13' W 090°40'0 0.0
2017-Dec-21 06:25N 29°13' W 090°40'0 0.0
2017-Dec-21 05:57N 29°13' W 090°40'0 0.0
2017-Dec-21 05:29N 29°13' W 090°40'0 0.0
2017-Dec-21 05:00N 29°13' W 090°40'0 0.0
2017-Dec-21 04:30N 29°13' W 090°40'  

Dump ship's entire track history